N5DB KROC-KCLE
Flight info
| Callsign | N5DB |
|---|---|
| Flight time | N/A |
| Altitude | 34000 |
| Route | TRYBE TRYBE4 |
| Aircraft | B738/M-SDE2E3FGHIRWXY/LB1 |
Departure
| Time | 2026-04-21 20:46 |
|---|---|
| Airport | Frederick Douglass Greater Rochester International Airport (KROC) |
Arrival
| Time | N/A |
|---|---|
| Airport | Cleveland Hopkins International Airport (KCLE) |
| Time | Latitude | Longitude | Altitude | Speed | Heading |
|---|---|---|---|---|---|
| 2026-04-21 20:26 | 43.12595 | -77.66106 | 567 ft | 0 kts | 358° |
| 2026-04-21 20:42 | 43.12604 | -77.66106 | 569 ft | 5 kts | 355° |
| 2026-04-21 20:42 | 43.12637 | -77.66134 | 561 ft | 12 kts | 305° |
| 2026-04-21 20:42 | 43.12641 | -77.66175 | 564 ft | 1 kts | 178° |
| 2026-04-21 20:42 | 43.12582 | -77.66168 | 565 ft | 14 kts | 176° |
| 2026-04-21 20:43 | 43.12544 | -77.66185 | 562 ft | 6 kts | 229° |
| 2026-04-21 20:43 | 43.12530 | -77.66292 | 566 ft | 16 kts | 268° |
| 2026-04-21 20:43 | 43.12525 | -77.66450 | 559 ft | 17 kts | 268° |
| 2026-04-21 20:43 | 43.12521 | -77.66607 | 559 ft | 17 kts | 268° |
| 2026-04-21 20:44 | 43.12513 | -77.66785 | 568 ft | 20 kts | 265° |
| 2026-04-21 20:44 | 43.12507 | -77.66931 | 559 ft | 0 kts | 270° |
| 2026-04-21 20:44 | 43.12508 | -77.66950 | 558 ft | 8 kts | 271° |
| 2026-04-21 20:44 | 43.12508 | -77.67083 | 557 ft | 17 kts | 273° |
| 2026-04-21 20:45 | 43.12531 | -77.67223 | 556 ft | 11 kts | 224° |
| 2026-04-21 20:45 | 43.12520 | -77.67234 | 559 ft | 1 kts | 216° |
| 2026-04-21 20:45 | 43.12363 | -77.67366 | 563 ft | 67 kts | 211° |
| 2026-04-21 20:45 | 43.11734 | -77.67894 | 576 ft | 140 kts | 211° |
| 2026-04-21 20:46 | 43.10890 | -77.68625 | 1374 ft | 143 kts | 211° |
| 2026-04-21 20:46 | 43.10007 | -77.69367 | 2241 ft | 159 kts | 209° |
| 2026-04-21 20:46 | 43.08960 | -77.70239 | 2728 ft | 194 kts | 211° |
| 2026-04-21 20:46 | 43.07767 | -77.71344 | 3027 ft | 224 kts | 220° |
| 2026-04-21 20:47 | 43.06760 | -77.73166 | 3592 ft | 246 kts | 237° |
| 2026-04-21 20:47 | 43.05889 | -77.75199 | 4740 ft | 246 kts | 238° |
| 2026-04-21 20:47 | 43.05038 | -77.77209 | 5993 ft | 244 kts | 240° |
| 2026-04-21 20:47 | 43.04188 | -77.79206 | 7154 ft | 243 kts | 242° |
| 2026-04-21 20:48 | 43.03340 | -77.81187 | 8164 ft | 247 kts | 243° |
| 2026-04-21 20:48 | 43.02460 | -77.83227 | 9151 ft | 251 kts | 244° |
| 2026-04-21 20:48 | 43.01561 | -77.85296 | 10179 ft | 255 kts | 245° |
| 2026-04-21 20:48 | 43.00624 | -77.87457 | 10661 ft | 278 kts | 245° |
| 2026-04-21 20:49 | 42.99588 | -77.89846 | 10869 ft | 307 kts | 245° |
| 2026-04-21 20:49 | 42.98448 | -77.92458 | 11139 ft | 330 kts | 244° |
| 2026-04-21 20:49 | 42.97238 | -77.95200 | 11776 ft | 341 kts | 244° |
| 2026-04-21 20:49 | 42.95997 | -77.97993 | 12557 ft | 347 kts | 244° |
| 2026-04-21 20:50 | 42.94732 | -78.00827 | 13404 ft | 352 kts | 244° |
| 2026-04-21 20:50 | 42.93445 | -78.03709 | 14220 ft | 358 kts | 244° |
| 2026-04-21 20:50 | 42.92139 | -78.06632 | 15004 ft | 363 kts | 244° |
| 2026-04-21 20:50 | 42.90835 | -78.09547 | 15834 ft | 367 kts | 244° |
| 2026-04-21 20:51 | 42.89496 | -78.12538 | 16665 ft | 371 kts | 244° |
| 2026-04-21 20:51 | 42.88143 | -78.15561 | 17483 ft | 377 kts | 244° |
| 2026-04-21 20:51 | 42.86767 | -78.18631 | 18249 ft | 382 kts | 245° |
| 2026-04-21 20:51 | 42.85373 | -78.21741 | 18945 ft | 387 kts | 244° |
| 2026-04-21 20:52 | 42.83962 | -78.24883 | 19630 ft | 391 kts | 244° |
| 2026-04-21 20:52 | 42.82534 | -78.28059 | 20297 ft | 395 kts | 244° |
| 2026-04-21 20:52 | 42.81090 | -78.31268 | 20935 ft | 400 kts | 244° |
| 2026-04-21 20:52 | 42.79630 | -78.34511 | 21519 ft | 405 kts | 244° |
| 2026-04-21 20:53 | 42.78149 | -78.37794 | 22178 ft | 408 kts | 244° |
| 2026-04-21 20:53 | 42.76658 | -78.41097 | 22794 ft | 412 kts | 244° |
| 2026-04-21 20:53 | 42.75150 | -78.44433 | 23380 ft | 416 kts | 244° |
| 2026-04-21 20:53 | 42.73624 | -78.47805 | 23917 ft | 420 kts | 244° |
| 2026-04-21 20:54 | 42.72084 | -78.51205 | 24417 ft | 423 kts | 244° |
| 2026-04-21 20:54 | 42.70535 | -78.54620 | 24927 ft | 426 kts | 244° |
| 2026-04-21 20:54 | 42.68972 | -78.58060 | 25424 ft | 428 kts | 244° |
| 2026-04-21 20:54 | 42.67403 | -78.61511 | 25893 ft | 431 kts | 244° |
| 2026-04-21 20:55 | 42.65821 | -78.64987 | 26325 ft | 434 kts | 244° |
| 2026-04-21 20:55 | 42.64228 | -78.68486 | 26740 ft | 437 kts | 244° |
| 2026-04-21 20:55 | 42.62624 | -78.72002 | 27190 ft | 439 kts | 243° |
| 2026-04-21 20:55 | 42.61007 | -78.75540 | 27615 ft | 441 kts | 243° |
| 2026-04-21 20:56 | 42.59384 | -78.79090 | 28014 ft | 444 kts | 243° |
| 2026-04-21 20:56 | 42.57774 | -78.82607 | 28380 ft | 447 kts | 243° |
| 2026-04-21 20:56 | 42.56126 | -78.86204 | 28748 ft | 449 kts | 243° |
| 2026-04-21 20:56 | 42.54470 | -78.89811 | 29221 ft | 449 kts | 243° |
| 2026-04-21 20:57 | 42.52821 | -78.93395 | 29816 ft | 446 kts | 243° |
| 2026-04-21 20:57 | 42.51183 | -78.96951 | 30391 ft | 444 kts | 243° |
| 2026-04-21 20:57 | 42.49550 | -79.00495 | 30875 ft | 442 kts | 243° |
| 2026-04-21 20:57 | 42.47923 | -79.04022 | 31285 ft | 441 kts | 243° |
| 2026-04-21 20:58 | 42.46297 | -79.07546 | 31693 ft | 441 kts | 243° |
| 2026-04-21 20:58 | 42.44674 | -79.11059 | 32209 ft | 438 kts | 243° |
| 2026-04-21 20:58 | 42.43058 | -79.14550 | 32729 ft | 436 kts | 243° |
| 2026-04-21 20:58 | 42.41448 | -79.18025 | 33177 ft | 435 kts | 243° |
| 2026-04-21 20:59 | 42.39841 | -79.21490 | 33604 ft | 435 kts | 243° |
| 2026-04-21 20:59 | 42.38256 | -79.24906 | 34036 ft | 434 kts | 243° |
| 2026-04-21 20:59 | 42.35026 | -79.31856 | 34101 ft | 435 kts | 243° |
| 2026-04-21 21:00 | 42.31811 | -79.38750 | 34119 ft | 432 kts | 243° |
| 2026-04-21 21:00 | 42.28601 | -79.45620 | 34116 ft | 432 kts | 242° |
| 2026-04-21 21:01 | 42.25407 | -79.52441 | 34110 ft | 431 kts | 242° |
| 2026-04-21 21:01 | 42.22195 | -79.59283 | 34105 ft | 432 kts | 242° |
| 2026-04-21 21:02 | 42.18980 | -79.66118 | 34120 ft | 431 kts | 242° |
| 2026-04-21 21:02 | 42.15762 | -79.72943 | 34093 ft | 431 kts | 242° |
| 2026-04-21 21:03 | 42.12537 | -79.79766 | 34074 ft | 432 kts | 242° |